Time;durP1;ratioP1;P1;durP2;ratioP2;P2;SDS_P1;SDS_P2;PMS_P1;PMS_P2;Temp;Humidity;BMP_temperature;BMP_pressure;BME280_temperature;BME280_humidity;BME280_pressure;Samples;Min_cycle;Max_cycle;Signal;HPM_P1;HPM_P2
2021/03/23 00:02:10;;;;;;;10.93;6.07;;;3.50;99.90;;;;;;5030428;28;20448;-47
2021/03/23 00:04:36;;;;;;;16.27;6.27;;;3.50;99.90;;;;;;5030142;28;20538;-47
2021/03/23 00:07:03;;;;;;;10.57;5.60;;;3.50;99.90;;;;;;5030128;28;20453;-47
2021/03/23 00:09:30;;;;;;;17.33;6.20;;;3.60;99.90;;;;;;5029098;28;20491;-47
2021/03/23 00:11:57;;;;;;;11.87;5.87;;;3.70;99.90;;;;;;5029953;28;20502;-47
2021/03/23 00:14:23;;;;;;;16.23;5.77;;;3.70;99.90;;;;;;5028389;28;20457;-47
2021/03/23 00:16:51;;;;;;;10.07;5.87;;;3.70;99.90;;;;;;5031563;28;20476;-47
2021/03/23 00:19:17;;;;;;;12.70;6.20;;;3.70;99.90;;;;;;5032670;28;20449;-46
2021/03/23 00:21:44;;;;;;;10.13;5.20;;;3.80;99.90;;;;;;5014448;28;21025;-47
2021/03/23 00:24:11;;;;;;;14.73;5.87;;;3.80;99.90;;;;;;5014847;28;20450;-47
2021/03/23 00:26:38;;;;;;;12.07;5.60;;;3.90;99.90;;;;;;5023287;28;20468;-47
2021/03/23 00:29:04;;;;;;;10.10;6.00;;;3.80;99.90;;;;;;5034326;28;20575;-47
2021/03/23 00:31:33;;;;;;;13.07;5.33;;;3.80;99.90;;;;;;5027864;28;20449;-47
2021/03/23 00:34:02;;;;;;;10.67;4.93;;;3.90;99.90;;;;;;5019701;28;20448;-47
2021/03/23 00:36:31;;;;;;;10.00;4.90;;;4.00;99.90;;;;;;5033393;28;20476;-47
2021/03/23 00:39:00;;;;;;;13.13;5.70;;;4.00;99.90;;;;;;5033421;28;20462;-47
2021/03/23 00:41:26;;;;;;;15.47;5.90;;;4.00;99.90;;;;;;5020150;28;20484;-47
2021/03/23 00:43:53;;;;;;;10.87;5.40;;;3.90;99.90;;;;;;5033641;28;20456;-47
2021/03/23 00:46:19;;;;;;;16.50;6.03;;;4.00;99.90;;;;;;5033578;28;20526;-47
2021/03/23 00:48:46;;;;;;;13.53;5.43;;;3.90;99.90;;;;;;5031289;28;20506;-47
2021/03/23 00:51:13;;;;;;;10.67;5.70;;;3.90;99.90;;;;;;5033604;28;20968;-47
2021/03/23 00:53:40;;;;;;;10.90;5.20;;;3.90;99.90;;;;;;5033788;28;20949;-47
2021/03/23 00:56:06;;;;;;;11.60;5.87;;;4.00;99.90;;;;;;5032846;28;21045;-47
2021/03/23 00:58:33;;;;;;;12.13;6.17;;;3.90;99.90;;;;;;5032966;28;20456;-47
2021/03/23 01:00:59;;;;;;;14.07;7.60;;;3.90;99.90;;;;;;5032677;28;20476;-47
2021/03/23 01:03:26;;;;;;;13.63;6.30;;;3.90;99.90;;;;;;5033518;28;20455;-47
2021/03/23 01:05:52;;;;;;;11.53;6.53;;;3.80;99.90;;;;;;5025090;28;21052;-47
2021/03/23 01:08:20;;;;;;;19.63;6.27;;;3.90;99.90;;;;;;5026025;28;20831;-47
2021/03/23 01:10:46;;;;;;;10.37;5.90;;;3.90;99.90;;;;;;5032506;28;20567;-47
2021/03/23 01:13:13;;;;;;;11.87;5.50;;;3.90;99.90;;;;;;5033336;28;20453;-47
2021/03/23 01:15:39;;;;;;;42.03;21.53;;;3.90;99.90;;;;;;5020020;28;20472;-47
2021/03/23 01:18:06;;;;;;;20.60;8.63;;;3.90;99.90;;;;;;5033071;28;20879;-46
2021/03/23 01:20:33;;;;;;;15.63;6.70;;;3.60;99.90;;;;;;5033231;28;20480;-47
2021/03/23 01:23:00;;;;;;;20.97;7.80;;;3.50;99.90;;;;;;5032761;28;20459;-47
2021/03/23 01:25:27;;;;;;;11.83;6.60;;;3.60;99.90;;;;;;5033275;28;20475;-47
2021/03/23 01:27:54;;;;;;;13.93;6.50;;;3.50;99.90;;;;;;5031441;28;20456;-47
2021/03/23 01:30:23;;;;;;;14.43;7.07;;;3.50;99.90;;;;;;5033118;28;20946;-47
2021/03/23 01:32:51;;;;;;;14.97;7.40;;;3.60;99.90;;;;;;5020662;28;20503;-47
2021/03/23 01:35:19;;;;;;;22.23;8.70;;;3.70;99.90;;;;;;5032503;28;20472;-46
2021/03/23 01:37:45;;;;;;;12.13;7.27;;;3.50;99.90;;;;;;5030945;28;20453;-47
2021/03/23 01:40:14;;;;;;;16.73;7.60;;;3.40;99.90;;;;;;5029275;28;20483;-47
2021/03/23 01:42:44;;;;;;;10.70;6.97;;;3.40;99.90;;;;;;5032709;28;21124;-47
2021/03/23 01:45:24;;;;;;;9.97;5.93;;;3.40;99.90;;;;;;5032497;28;20482;-46
2021/03/23 01:47:52;;;;;;;13.33;6.40;;;3.50;99.90;;;;;;5032219;28;20509;-46
2021/03/23 01:50:20;;;;;;;13.07;6.73;;;3.60;99.90;;;;;;5032837;28;20930;-47
2021/03/23 01:52:49;;;;;;;18.60;6.40;;;3.60;99.90;;;;;;5032834;28;20440;-47
2021/03/23 01:55:16;;;;;;;9.63;6.20;;;3.70;99.90;;;;;;5031866;28;20479;-47
2021/03/23 01:57:47;;;;;;;13.63;5.97;;;3.60;99.90;;;;;;5027251;28;20486;-47
2021/03/23 02:00:14;;;;;;;14.30;6.10;;;3.70;99.90;;;;;;5028700;28;20491;-47
2021/03/23 02:02:40;;;;;;;15.63;7.03;;;3.60;99.90;;;;;;5032769;28;20460;-46
2021/03/23 02:05:09;;;;;;;14.80;7.30;;;3.50;99.90;;;;;;5031975;28;20502;-47
2021/03/23 02:07:40;;;;;;;14.97;7.80;;;3.30;99.90;;;;;;5031129;28;20514;-47
2021/03/23 02:10:07;;;;;;;28.97;16.63;;;3.40;99.90;;;;;;5032432;28;20445;-47
2021/03/23 02:12:34;;;;;;;26.30;13.53;;;3.30;99.90;;;;;;5031908;28;20445;-47
2021/03/23 02:15:02;;;;;;;33.93;18.87;;;3.20;99.90;;;;;;5032131;28;20499;-47
2021/03/23 02:17:33;;;;;;;15.10;6.77;;;3.10;99.90;;;;;;5031657;28;20463;-47
2021/03/23 02:20:02;;;;;;;11.40;6.80;;;3.20;99.90;;;;;;5031936;28;21014;-47
2021/03/23 02:22:31;;;;;;;46.03;26.50;;;3.20;99.90;;;;;;5032128;28;20960;-47
2021/03/23 02:25:02;;;;;;;27.07;14.60;;;3.20;99.90;;;;;;5031868;28;20518;-47
2021/03/23 02:27:29;;;;;;;39.83;24.03;;;3.00;99.90;;;;;;5028436;28;20478;-46
2021/03/23 02:29:59;;;;;;;33.63;17.20;;;3.00;99.90;;;;;;5016540;28;20558;-47
2021/03/23 02:32:26;;;;;;;16.43;9.77;;;3.10;99.90;;;;;;5031494;28;20448;-47
2021/03/23 02:34:53;;;;;;;19.03;8.30;;;3.10;99.90;;;;;;5031015;28;20456;-47
2021/03/23 02:37:20;;;;;;;11.40;7.37;;;2.90;99.90;;;;;;5030002;28;20449;-47
2021/03/23 02:39:47;;;;;;;12.73;7.20;;;3.00;99.90;;;;;;5017841;28;20476;-47
2021/03/23 02:42:15;;;;;;;12.60;7.37;;;3.00;99.90;;;;;;5012102;28;20639;-47
2021/03/23 02:44:44;;;;;;;37.10;17.77;;;3.10;99.90;;;;;;5020714;28;20452;-47
2021/03/23 02:47:11;;;;;;;31.03;18.70;;;3.00;99.90;;;;;;5070000;22;20491;-49
2021/03/23 02:49:38;;;;;;;29.07;12.50;;;2.80;99.90;;;;;;5050685;28;20498;-49
2021/03/23 02:52:06;;;;;;;35.63;20.10;;;2.80;99.90;;;;;;5051708;28;20463;-48
2021/03/23 02:54:32;;;;;;;23.10;9.87;;;2.80;99.90;;;;;;5050953;28;20466;-48
2021/03/23 02:56:59;;;;;;;17.83;10.10;;;2.80;99.90;;;;;;5037086;28;20480;-48
2021/03/23 02:59:26;;;;;;;27.10;9.97;;;2.90;99.90;;;;;;5039116;28;20456;-48
2021/03/23 03:01:52;;;;;;;16.40;9.30;;;2.80;99.90;;;;;;5031168;28;20522;-48
2021/03/23 03:04:19;;;;;;;21.53;9.23;;;2.80;99.90;;;;;;5032657;28;20475;-48
2021/03/23 03:06:46;;;;;;;14.50;9.03;;;2.90;99.90;;;;;;5031081;28;20542;-48
2021/03/23 03:09:12;;;;;;;13.80;8.00;;;2.90;99.90;;;;;;5032193;28;20459;-49
2021/03/23 03:11:38;;;;;;;12.57;7.50;;;2.90;99.90;;;;;;5032227;28;20462;-48
2021/03/23 03:14:06;;;;;;;15.20;7.93;;;2.90;99.90;;;;;;5030940;28;20969;-48
2021/03/23 03:16:33;;;;;;;20.10;8.57;;;2.90;99.90;;;;;;5030989;28;20526;-48
2021/03/23 03:18:59;;;;;;;17.33;8.87;;;2.70;99.90;;;;;;5032312;28;20457;-48
2021/03/23 03:21:26;;;;;;;14.73;8.83;;;2.50;99.90;;;;;;5035946;28;20484;-48
2021/03/23 03:23:52;;;;;;;17.40;8.07;;;2.40;99.90;;;;;;5033784;28;20516;-48
2021/03/23 03:26:19;;;;;;;19.33;8.17;;;2.50;99.90;;;;;;5034052;28;20477;-48
2021/03/23 03:28:50;;;;;;;15.43;8.00;;;2.40;99.90;;;;;;5037421;28;20531;-48
2021/03/23 03:31:19;;;;;;;13.80;7.97;;;2.50;99.90;;;;;;5048272;28;20444;-48
2021/03/23 03:33:45;;;;;;;17.10;8.20;;;2.40;99.90;;;;;;5039370;28;20520;-48
2021/03/23 03:36:12;;;;;;;17.23;8.50;;;2.50;99.90;;;;;;5050931;28;20471;-48
2021/03/23 03:38:38;;;;;;;13.23;7.07;;;2.50;99.90;;;;;;5042795;28;20479;-48
2021/03/23 03:41:05;;;;;;;15.00;6.30;;;2.50;99.90;;;;;;5030877;28;20480;-48
2021/03/23 03:43:32;;;;;;;11.27;6.17;;;2.60;99.90;;;;;;5030686;28;20452;-48
2021/03/23 03:46:01;;;;;;;14.23;5.70;;;2.50;99.90;;;;;;5049671;28;20492;-48
2021/03/23 03:48:29;;;;;;;18.90;5.60;;;2.70;99.90;;;;;;5048182;28;20513;-48
2021/03/23 03:50:56;;;;;;;9.50;4.90;;;2.70;99.90;;;;;;5030229;28;20449;-48
2021/03/23 03:53:23;;;;;;;12.27;5.63;;;2.50;99.90;;;;;;5030902;28;20457;-48
2021/03/23 03:55:51;;;;;;;13.70;6.20;;;2.20;99.90;;;;;;5033569;28;21020;-48
2021/03/23 03:58:17;;;;;;;14.27;6.00;;;2.10;99.90;;;;;;5030676;28;20452;-48
2021/03/23 04:00:44;;;;;;;11.50;6.20;;;2.20;99.90;;;;;;5043608;28;20483;-48
2021/03/23 04:03:14;;;;;;;11.13;5.80;;;2.20;99.90;;;;;;5040646;28;20454;-48
2021/03/23 04:05:42;;;;;;;14.90;6.27;;;2.20;99.90;;;;;;5050090;28;20540;-48
2021/03/23 04:08:11;;;;;;;9.77;4.57;;;2.20;99.90;;;;;;5050320;28;20832;-48
2021/03/23 04:10:39;;;;;;;11.10;5.50;;;2.20;99.90;;;;;;5042833;28;20452;-48
2021/03/23 04:13:05;;;;;;;10.17;4.57;;;2.20;99.90;;;;;;5032761;28;20459;-48
2021/03/23 04:15:35;;;;;;;13.37;4.93;;;2.20;99.90;;;;;;5048786;28;20848;-48
2021/03/23 04:18:02;;;;;;;12.83;5.50;;;2.00;99.90;;;;;;5050337;28;20492;-48
2021/03/23 04:20:30;;;;;;;7.40;4.70;;;1.90;99.90;;;;;;5038272;28;20479;-48
2021/03/23 04:22:57;;;;;;;10.70;5.27;;;1.90;99.90;;;;;;5031857;28;20984;-48
2021/03/23 04:25:27;;;;;;;11.03;5.10;;;2.10;99.90;;;;;;5044461;28;20451;-47
2021/03/23 04:27:54;;;;;;;13.63;4.90;;;2.10;99.90;;;;;;5010611;28;20474;-47
2021/03/23 04:30:22;;;;;;;11.23;5.63;;;2.10;99.90;;;;;;5033650;28;20445;-48
2021/03/23 04:32:50;;;;;;;13.37;5.30;;;2.20;99.90;;;;;;5029974;28;20458;-48
2021/03/23 04:35:25;;;;;;;12.33;5.00;;;2.20;99.90;;;;;;5034229;28;20456;-48
2021/03/23 04:37:51;;;;;;;15.77;5.60;;;2.10;99.90;;;;;;5031318;28;20481;-48
2021/03/23 04:40:19;;;;;;;10.23;5.07;;;2.20;99.90;;;;;;5032165;28;20463;-48
2021/03/23 04:42:45;;;;;;;14.00;5.80;;;2.20;99.90;;;;;;5029795;28;20459;-48
2021/03/23 04:45:13;;;;;;;13.07;5.13;;;2.10;99.90;;;;;;5030019;28;20458;-48
2021/03/23 04:47:39;;;;;;;8.60;4.80;;;2.10;99.90;;;;;;5031265;28;20443;-48
2021/03/23 04:50:09;;;;;;;11.63;6.13;;;2.10;99.90;;;;;;5036657;28;20442;-48
2021/03/23 04:52:35;;;;;;;15.93;5.30;;;2.10;99.90;;;;;;5033704;28;20442;-48
2021/03/23 04:55:02;;;;;;;12.73;5.23;;;2.10;99.90;;;;;;5029875;28;20450;-48
2021/03/23 04:57:30;;;;;;;20.97;6.20;;;2.10;99.90;;;;;;5030228;28;20483;-48
2021/03/23 04:59:56;;;;;;;24.40;6.40;;;2.00;99.90;;;;;;5032555;28;20448;-48
2021/03/23 05:02:23;;;;;;;18.10;6.40;;;1.80;99.90;;;;;;5033120;28;20486;-48
2021/03/23 05:04:49;;;;;;;15.57;7.60;;;1.60;99.90;;;;;;5052997;28;20458;-48
2021/03/23 05:07:16;;;;;;;15.30;6.20;;;1.60;99.90;;;;;;5033604;28;20471;-48
2021/03/23 05:09:42;;;;;;;12.23;5.70;;;1.50;99.90;;;;;;5033709;28;20457;-48
2021/03/23 05:12:10;;;;;;;10.27;5.27;;;1.40;99.90;;;;;;5033581;28;20451;-48
2021/03/23 05:14:39;;;;;;;9.90;5.40;;;1.30;99.90;;;;;;5041832;28;20455;-48
2021/03/23 05:17:06;;;;;;;11.97;5.27;;;1.30;99.90;;;;;;5043544;28;20498;-48
2021/03/23 05:19:35;;;;;;;11.13;5.63;;;1.30;99.90;;;;;;5033459;28;20449;-48
2021/03/23 05:22:01;;;;;;;8.70;4.60;;;1.30;99.90;;;;;;5033138;28;21027;-48
2021/03/23 05:24:31;;;;;;;11.40;5.43;;;1.40;99.90;;;;;;5033469;28;20452;-48
2021/03/23 05:26:57;;;;;;;12.80;5.33;;;1.30;99.90;;;;;;5050788;28;20498;-48
2021/03/23 05:29:24;;;;;;;10.60;5.90;;;1.30;99.90;;;;;;5042480;28;20459;-49
2021/03/23 05:31:51;;;;;;;11.70;6.37;;;1.30;99.90;;;;;;5033302;28;20448;-49
2021/03/23 05:34:19;;;;;;;15.13;6.50;;;1.30;99.90;;;;;;5033034;28;20825;-48
2021/03/23 05:36:45;;;;;;;14.60;9.90;;;1.30;99.90;;;;;;5032722;28;20476;-49
2021/03/23 05:39:13;;;;;;;25.17;12.93;;;1.40;99.90;;;;;;5032957;28;21131;-49
2021/03/23 05:41:48;;;;;;;14.50;7.03;;;1.50;99.90;;;;;;5032788;28;20574;-48
2021/03/23 05:44:52;;;;;;;18.60;6.83;;;1.40;99.90;;;;;;5033001;28;20446;-49
2021/03/23 05:47:31;;;;;;;17.63;7.00;;;1.50;99.90;;;;;;5013004;28;20571;-49
2021/03/23 05:50:15;;;;;;;16.17;6.60;;;1.50;99.90;;;;;;5013234;28;20499;-49
2021/03/23 05:52:45;;;;;;;17.70;6.70;;;1.40;99.90;;;;;;5013037;28;20453;-49
2021/03/23 05:55:29;;;;;;;22.30;13.17;;;1.40;99.90;;;;;;5034105;28;20456;-49
2021/03/23 05:57:58;;;;;;;16.33;6.00;;;1.60;99.90;;;;;;5053150;28;20450;-48
2021/03/23 06:00:29;;;;;;;11.93;4.90;;;1.50;99.90;;;;;;5052667;28;20455;-48
2021/03/23 06:03:05;;;;;;;11.87;5.43;;;1.40;99.90;;;;;;5052612;28;20451;-48
2021/03/23 06:05:38;;;;;;;15.60;5.03;;;1.60;99.90;;;;;;5031901;28;20484;-48
2021/03/23 06:08:16;;;;;;;11.80;5.40;;;1.70;99.90;;;;;;5032306;28;20934;-49
2021/03/23 06:10:42;;;;;;;16.23;6.20;;;1.80;99.90;;;;;;5032292;28;20448;-49
2021/03/23 06:13:22;;;;;;;11.37;4.90;;;2.00;99.90;;;;;;5032498;28;20455;-49
2021/03/23 06:16:02;;;;;;;12.43;5.57;;;2.40;99.90;;;;;;5031564;28;20476;-48
2021/03/23 06:18:35;;;;;;;9.43;4.93;;;3.10;99.90;;;;;;5031266;28;20460;-49
2021/03/23 06:21:07;;;;;;;12.07;5.70;;;3.80;99.90;;;;;;5031963;28;20474;-49
2021/03/23 06:23:55;;;;;;;10.30;5.53;;;4.70;99.90;;;;;;5032259;28;20464;-49
2021/03/23 06:26:41;;;;;;;9.47;4.90;;;5.40;99.90;;;;;;5031851;28;20468;-54
2021/03/23 06:29:18;;;;;;;19.60;9.50;;;5.90;99.90;;;;;;5032281;28;20504;-49
2021/03/23 06:32:13;;;;;;;17.27;5.17;;;6.70;99.90;;;;;;5032032;28;20448;-49
2021/03/23 06:34:42;;;;;;;9.37;4.00;;;7.20;99.90;;;;;;5031879;28;20447;-49
2021/03/23 06:37:21;;;;;;;8.67;4.30;;;7.10;99.90;;;;;;5031450;28;20476;-49
2021/03/23 06:39:49;;;;;;;11.73;4.77;;;7.30;99.90;;;;;;5031911;28;20452;-49
2021/03/23 06:42:32;;;;;;;10.37;5.07;;;7.50;99.90;;;;;;5031783;28;20490;-49
2021/03/23 06:45:20;;;;;;;10.17;4.40;;;7.50;99.90;;;;;;5031573;28;20448;-49
2021/03/23 06:47:48;;;;;;;11.13;4.80;;;7.30;99.90;;;;;;5030812;28;20452;-49
2021/03/23 06:50:33;;;;;;;10.43;4.93;;;7.70;99.90;;;;;;5021401;28;21166;-50
2021/03/23 06:53:08;;;;;;;9.50;4.77;;;7.50;99.90;;;;;;5028282;28;20456;-50
2021/03/23 06:55:36;;;;;;;7.87;4.10;;;7.60;99.90;;;;;;5030766;28;20470;-50
2021/03/23 06:58:18;;;;;;;9.53;4.10;;;7.90;99.90;;;;;;5031344;28;20444;-50
2021/03/23 07:00:45;;;;;;;10.80;4.40;;;8.10;99.90;;;;;;5030826;28;20574;-50
2021/03/23 07:03:16;;;;;;;16.30;5.20;;;8.40;99.90;;;;;;5031012;28;21010;-50
2021/03/23 07:05:45;;;;;;;7.57;4.40;;;8.70;99.90;;;;;;5031132;28;20480;-50
2021/03/23 07:08:22;;;;;;;6.53;3.67;;;8.70;99.90;;;;;;5031035;28;20452;-49
2021/03/23 07:11:08;;;;;;;8.13;4.00;;;8.00;99.90;;;;;;5030802;28;20455;-49
2021/03/23 07:13:40;;;;;;;9.90;4.27;;;7.90;99.90;;;;;;5044317;28;20500;-49
2021/03/23 07:16:28;;;;;;;8.63;4.53;;;7.50;99.90;;;;;;5051039;28;20468;-49
2021/03/23 07:19:08;;;;;;;10.87;4.60;;;7.40;99.90;;;;;;5051269;28;20435;-50
2021/03/23 07:21:43;;;;;;;11.07;4.97;;;7.50;99.90;;;;;;5051037;28;20478;-50
2021/03/23 07:24:11;;;;;;;9.90;4.97;;;7.80;99.90;;;;;;5050989;28;20468;-49
2021/03/23 07:26:41;;;;;;;6.10;4.43;;;7.80;99.90;;;;;;5044421;28;20506;-49
2021/03/23 07:29:31;;;;;;;10.53;5.67;;;7.80;99.90;;;;;;5030826;28;20458;-49
2021/03/23 07:32:15;;;;;;;7.63;4.20;;;7.90;99.90;;;;;;5027459;28;20460;-50
2021/03/23 07:35:06;;;;;;;13.43;4.70;;;8.30;99.90;;;;;;5031788;28;20475;-49
2021/03/23 07:37:48;;;;;;;11.47;4.50;;;8.60;99.90;;;;;;5050407;28;20459;-49
2021/03/23 07:40:22;;;;;;;9.10;4.20;;;8.60;99.90;;;;;;5030484;28;20838;-49
2021/03/23 07:43:16;;;;;;;7.40;4.20;;;8.60;99.90;;;;;;5030963;28;20433;-50
2021/03/23 07:45:52;;;;;;;8.10;4.00;;;9.00;99.90;;;;;;5010733;28;20560;-49
2021/03/23 07:48:24;;;;;;;6.60;3.70;;;9.50;99.90;;;;;;5015316;28;20452;-50
2021/03/23 07:51:01;;;;;;;7.70;4.07;;;9.30;99.90;;;;;;5030465;28;20511;-50
2021/03/23 07:53:37;;;;;;;11.13;3.83;;;9.90;99.90;;;;;;5030207;28;20455;-50
2021/03/23 07:56:17;;;;;;;8.53;4.20;;;9.70;99.60;;;;;;5030288;28;20472;-50
2021/03/23 07:58:52;;;;;;;9.87;4.37;;;10.10;98.50;;;;;;5011370;28;20456;-50
2021/03/23 08:01:33;;;;;;;8.67;3.93;;;10.60;98.90;;;;;;5021338;28;21054;-50
2021/03/23 08:04:06;;;;;;;13.63;4.23;;;11.00;98.60;;;;;;5030688;28;20554;-50
2021/03/23 08:06:48;;;;;;;9.33;4.10;;;11.30;98.30;;;;;;5029268;28;20481;-50
2021/03/23 08:09:54;;;;;;;4.80;3.80;;;11.20;98.00;;;;;;5029807;28;20516;-50
2021/03/23 08:13:00;;;;;;;8.50;4.10;;;11.60;96.40;;;;;;5012619;28;20569;-50
2021/03/23 08:15:58;;;;;;;6.20;3.90;;;11.80;95.70;;;;;;5029683;28;20526;-50
2021/03/23 08:18:51;;;;;;;10.50;4.87;;;11.50;94.70;;;;;;5028841;28;20485;-50
2021/03/23 08:21:38;;;;;;;8.40;4.97;;;11.70;95.50;;;;;;5026742;28;20480;-50
2021/03/23 08:24:21;;;;;;;5.80;3.97;;;11.90;95.60;;;;;;5030122;28;20460;-50
2021/03/23 08:27:10;;;;;;;5.07;4.03;;;11.70;96.50;;;;;;5029272;28;20474;-50
2021/03/23 08:29:47;;;;;;;10.07;5.67;;;12.60;94.00;;;;;;5029654;28;20445;-50
2021/03/23 08:32:21;;;;;;;9.43;5.03;;;13.00;93.60;;;;;;5030230;28;20460;-50
2021/03/23 08:35:36;;;;;;;7.73;4.40;;;13.10;92.20;;;;;;5029750;28;20939;-51
2021/03/23 08:38:24;;;;;;;5.90;4.40;;;13.30;92.80;;;;;;4970621;28;20965;-50
2021/03/23 08:40:58;;;;;;;11.67;4.50;;;13.20;91.60;;;;;;4972287;28;20627;-50
2021/03/23 08:43:33;;;;;;;11.23;4.57;;;12.60;91.40;;;;;;5011967;28;20546;-50
2021/03/23 08:46:03;;;;;;;8.23;4.20;;;12.40;92.40;;;;;;5056170;22;20854;-50
2021/03/23 08:48:39;;;;;;;7.27;4.30;;;12.00;92.00;;;;;;5034809;28;20451;-48
2021/03/23 08:51:09;;;;;;;10.67;6.07;;;12.10;93.40;;;;;;5033475;28;20976;-48
2021/03/23 08:53:45;;;;;;;10.77;4.27;;;12.40;93.40;;;;;;5033476;28;20460;-47
2021/03/23 08:56:12;;;;;;;8.23;4.40;;;12.40;93.90;;;;;;5045803;28;20467;-48
2021/03/23 08:58:48;;;;;;;5.83;4.70;;;12.40;93.00;;;;;;5053325;28;20451;-47
2021/03/23 09:01:36;;;;;;;7.60;4.13;;;12.00;92.70;;;;;;5047695;28;20506;-47
2021/03/23 09:04:34;;;;;;;7.93;4.23;;;11.70;93.70;;;;;;5033435;28;20496;-48
2021/03/23 09:07:02;;;;;;;9.20;5.00;;;11.80;92.60;;;;;;5029924;28;20472;-48
2021/03/23 09:09:38;;;;;;;8.73;4.57;;;12.20;94.00;;;;;;5033176;28;20510;-48
2021/03/23 09:12:34;;;;;;;8.43;5.10;;;12.10;93.90;;;;;;5032819;28;20455;-47
2021/03/23 09:15:21;;;;;;;6.87;4.83;;;11.90;94.90;;;;;;5032950;28;20960;-47
2021/03/23 09:18:02;;;;;;;7.57;4.13;;;12.40;92.60;;;;;;5032147;28;20469;-48
2021/03/23 09:20:55;;;;;;;9.23;4.27;;;13.40;91.60;;;;;;5032974;28;20514;-47
2021/03/23 09:23:47;;;;;;;5.20;3.80;;;13.60;90.10;;;;;;5032293;28;20542;-47
2021/03/23 09:26:51;;;;;;;7.73;3.67;;;13.60;84.40;;;;;;5032344;28;20500;-48
2021/03/23 09:29:40;;;;;;;12.20;4.73;;;13.80;89.50;;;;;;5023145;28;20453;-49
2021/03/23 09:32:10;;;;;;;5.70;3.90;;;14.10;89.80;;;;;;5007415;28;20465;-48
2021/03/23 09:35:09;;;;;;;7.60;4.00;;;13.20;85.30;;;;;;5012897;28;20815;-48
2021/03/23 09:37:39;;;;;;;9.13;3.83;;;13.20;85.70;;;;;;5029535;28;20460;-48
2021/03/23 09:40:35;;;;;;;5.77;3.73;;;13.30;81.80;;;;;;5032292;28;20444;-48
2021/03/23 09:43:25;;;;;;;5.50;4.07;;;13.20;85.20;;;;;;5025779;28;20463;-47
2021/03/23 09:46:40;;;;;;;7.00;4.50;;;12.70;90.70;;;;;;5031861;28;20449;-47
2021/03/23 09:49:18;;;;;;;6.50;3.53;;;13.10;84.00;;;;;;5013291;28;20487;-48
2021/03/23 09:51:57;;;;;;;5.60;3.23;;;13.60;85.10;;;;;;5030222;28;20476;-48
2021/03/23 09:54:28;;;;;;;5.13;3.50;;;13.20;86.00;;;;;;5017565;28;20453;-47
2021/03/23 09:56:58;;;;;;;5.93;3.50;;;13.10;90.00;;;;;;5012234;28;21009;-47
2021/03/23 09:59:32;;;;;;;6.23;3.97;;;13.80;84.80;;;;;;5012473;28;20452;-47
2021/03/23 10:02:03;;;;;;;6.80;4.03;;;13.70;89.20;;;;;;5012855;28;20632;-48
2021/03/23 10:04:34;;;;;;;13.00;5.93;;;13.90;85.70;;;;;;5016128;28;20444;-47
2021/03/23 10:07:01;;;;;;;11.67;5.70;;;14.40;82.10;;;;;;5027327;28;20496;-46
2021/03/23 10:09:34;;;;;;;7.60;5.47;;;15.40;78.20;;;;;;5031826;28;20452;-46
2021/03/23 10:12:01;;;;;;;6.70;4.63;;;15.60;80.30;;;;;;5032075;28;20498;-46
2021/03/23 10:14:37;;;;;;;5.43;3.93;;;14.70;81.50;;;;;;5012303;28;20799;-46
2021/03/23 10:17:13;;;;;;;6.13;3.27;;;14.80;83.50;;;;;;5031024;28;20481;-46
2021/03/23 10:19:44;;;;;;;11.87;4.37;;;13.50;79.60;;;;;;5019794;28;20464;-45
2021/03/23 10:22:14;;;;;;;10.40;4.20;;;14.10;84.70;;;;;;5031464;28;20480;-45
2021/03/23 10:24:44;;;;;;;7.57;3.67;;;13.20;82.40;;;;;;5029725;28;20457;-46
2021/03/23 10:27:16;;;;;;;5.83;3.73;;;13.30;85.20;;;;;;5011925;28;20515;-45
2021/03/23 10:30:01;;;;;;;6.83;3.67;;;13.30;84.70;;;;;;5011853;28;20519;-46
2021/03/23 10:32:36;;;;;;;6.60;4.30;;;14.30;79.10;;;;;;5011714;28;20958;-46
2021/03/23 10:35:05;;;;;;;8.40;3.50;;;14.80;76.80;;;;;;5011787;28;20463;-46
2021/03/23 10:37:32;;;;;;;6.97;3.93;;;15.20;77.60;;;;;;5026352;28;20472;-46
2021/03/23 10:40:00;;;;;;;5.63;3.70;;;15.00;78.60;;;;;;5031359;28;20452;-46
2021/03/23 10:42:29;;;;;;;5.40;4.13;;;14.80;75.10;;;;;;5031169;28;20504;-47
2021/03/23 10:45:23;;;;;;;6.57;3.47;;;14.60;76.10;;;;;;5031037;28;20962;-45
2021/03/23 10:48:00;;;;;;;5.50;3.60;;;14.60;75.00;;;;;;5030726;28;20465;-46
2021/03/23 10:50:29;;;;;;;5.70;3.13;;;14.20;73.40;;;;;;5028575;28;20510;-45
2021/03/23 10:53:10;;;;;;;5.70;4.20;;;13.90;74.90;;;;;;5011381;28;20457;-46
2021/03/23 10:55:41;;;;;;;11.27;3.40;;;14.10;75.40;;;;;;5011046;28;20519;-46
2021/03/23 10:58:23;;;;;;;3.67;2.93;;;13.90;76.50;;;;;;5022818;28;20484;-46
2021/03/23 11:00:51;;;;;;;5.70;3.10;;;12.90;80.20;;;;;;5030031;28;20459;-45
2021/03/23 11:03:31;;;;;;;5.93;3.10;;;12.70;82.20;;;;;;5031060;28;20444;-46
2021/03/23 11:05:59;;;;;;;6.70;3.37;;;12.30;83.70;;;;;;5030484;28;20480;-45
2021/03/23 11:08:25;;;;;;;5.70;3.20;;;11.60;80.10;;;;;;5029326;28;20452;-46
2021/03/23 11:10:56;;;;;;;4.50;3.00;;;11.30;90.00;;;;;;5030808;28;20452;-46
2021/03/23 11:13:23;;;;;;;4.53;3.30;;;11.00;88.70;;;;;;5030412;28;20799;-46
2021/03/23 11:15:51;;;;;;;8.17;3.20;;;11.10;86.40;;;;;;5030185;28;20449;-46
2021/03/23 11:18:21;;;;;;;5.33;3.07;;;11.50;85.70;;;;;;5029915;28;20459;-46
2021/03/23 11:20:51;;;;;;;7.20;3.03;;;12.00;85.20;;;;;;5030737;28;20456;-46
2021/03/23 11:23:36;;;;;;;6.47;3.20;;;11.70;84.60;;;;;;5030618;28;20448;-46
2021/03/23 11:26:04;;;;;;;3.80;2.70;;;11.80;88.40;;;;;;5014891;28;20480;-46
2021/03/23 11:28:31;;;;;;;7.20;3.30;;;11.60;85.10;;;;;;5027133;28;20464;-46
2021/03/23 11:30:59;;;;;;;4.23;2.60;;;11.70;81.00;;;;;;5030680;28;20448;-46
2021/03/23 11:33:25;;;;;;;3.53;2.37;;;11.40;80.70;;;;;;5030539;28;20455;-46
2021/03/23 11:35:52;;;;;;;8.17;2.60;;;11.70;79.70;;;;;;5029202;28;20465;-46
2021/03/23 11:38:19;;;;;;;4.73;2.70;;;11.90;81.60;;;;;;5029904;28;20494;-46
2021/03/23 11:40:46;;;;;;;4.10;2.90;;;12.00;78.00;;;;;;5011024;28;20450;-46
2021/03/23 11:43:19;;;;;;;6.40;3.00;;;12.30;76.90;;;;;;5012278;28;20454;-46
2021/03/23 11:45:47;;;;;;;6.67;3.57;;;12.40;77.10;;;;;;5027634;28;20448;-46
2021/03/23 11:48:18;;;;;;;6.60;3.43;;;12.20;81.60;;;;;;5029572;28;20547;-46
2021/03/23 11:50:50;;;;;;;5.93;3.30;;;11.40;86.70;;;;;;5030137;28;20453;-46
2021/03/23 11:53:17;;;;;;;5.50;3.03;;;11.40;84.30;;;;;;5030099;28;20456;-46
2021/03/23 11:55:45;;;;;;;4.43;3.27;;;11.20;89.40;;;;;;5030238;28;20484;-47
2021/03/23 11:58:13;;;;;;;3.33;3.03;;;11.10;84.50;;;;;;5028911;28;20479;-46
2021/03/23 12:00:40;;;;;;;4.67;3.40;;;10.90;83.70;;;;;;5029897;28;20444;-46
2021/03/23 12:03:11;;;;;;;6.73;2.90;;;10.70;82.90;;;;;;5030271;28;20484;-46
2021/03/23 12:05:38;;;;;;;6.50;3.10;;;11.00;82.00;;;;;;5030230;28;20821;-47
2021/03/23 12:08:28;;;;;;;3.90;3.07;;;11.20;81.30;;;;;;5029747;28;20480;-47
2021/03/23 12:11:02;;;;;;;5.60;3.17;;;11.00;88.10;;;;;;5029728;28;20475;-46
2021/03/23 12:13:38;;;;;;;5.03;3.27;;;10.70;89.40;;;;;;5026841;28;20479;-46
2021/03/23 12:16:11;;;;;;;4.07;3.40;;;10.40;88.40;;;;;;5020912;28;20515;-46
2021/03/23 12:18:40;;;;;;;5.80;3.80;;;10.60;89.70;;;;;;5027818;28;20494;-46
2021/03/23 12:21:08;;;;;;;4.93;3.30;;;10.70;90.80;;;;;;5034028;28;20437;-46
2021/03/23 12:23:35;;;;;;;7.23;3.00;;;10.70;87.10;;;;;;5014107;28;20965;-46
2021/03/23 12:26:02;;;;;;;6.10;3.30;;;10.80;90.00;;;;;;5013831;28;20874;-46
2021/03/23 12:28:30;;;;;;;3.00;2.70;;;10.80;88.40;;;;;;5014179;28;20508;-47
2021/03/23 12:30:56;;;;;;;5.00;2.97;;;11.10;91.00;;;;;;5031711;28;20496;-47
2021/03/23 12:33:24;;;;;;;8.00;3.00;;;11.50;86.50;;;;;;5033572;28;20456;-47
2021/03/23 12:35:50;;;;;;;5.53;3.00;;;11.50;88.90;;;;;;5032437;28;20929;-47
2021/03/23 12:38:17;;;;;;;5.40;3.43;;;11.20;88.40;;;;;;5033722;28;21000;-47
2021/03/23 12:40:44;;;;;;;5.80;3.60;;;11.30;91.10;;;;;;5032785;28;20449;-47
2021/03/23 12:43:20;;;;;;;5.10;3.50;;;11.30;90.20;;;;;;5033422;28;21013;-46
2021/03/23 12:45:46;;;;;;;4.50;3.37;;;11.60;82.60;;;;;;5033035;28;20547;-46
2021/03/23 12:48:13;;;;;;;5.60;3.30;;;11.40;84.80;;;;;;5033545;28;20452;-46
2021/03/23 12:50:41;;;;;;;6.13;3.10;;;11.30;91.30;;;;;;5031817;28;20448;-46
2021/03/23 12:53:12;;;;;;;5.80;3.67;;;11.40;88.00;;;;;;5033418;28;20444;-46
2021/03/23 12:55:40;;;;;;;5.30;3.30;;;11.20;90.20;;;;;;5021166;28;20456;-47
2021/03/23 12:58:13;;;;;;;6.30;3.23;;;11.20;90.60;;;;;;5017343;28;20455;-47
2021/03/23 13:00:39;;;;;;;8.00;3.57;;;11.40;85.40;;;;;;5033265;28;20451;-47
2021/03/23 13:03:09;;;;;;;6.50;3.43;;;11.50;90.50;;;;;;5025217;28;20493;-46
2021/03/23 13:05:36;;;;;;;6.30;3.63;;;11.50;90.80;;;;;;5028468;28;20452;-46
2021/03/23 13:08:06;;;;;;;5.63;3.20;;;11.50;89.40;;;;;;5033650;28;20452;-47
2021/03/23 13:10:35;;;;;;;5.07;3.30;;;11.40;85.30;;;;;;5013902;28;20461;-47
2021/03/23 13:13:13;;;;;;;4.30;2.87;;;11.30;84.80;;;;;;5025910;28;20445;-47
2021/03/23 13:15:40;;;;;;;2.50;2.30;;;10.90;87.20;;;;;;5032542;28;20456;-46